Time;durP1;ratioP1;P1;durP2;ratioP2;P2;SDS_P1;SDS_P2;PMS_P1;PMS_P2;Temp;Humidity;BMP_temperature;BMP_pressure;BME280_temperature;BME280_humidity;BME280_pressure;Samples;Min_cycle;Max_cycle;Signal;HPM_P1;HPM_P2
2022/12/20 00:00:59;;;;;;;30.20;15.02;;;;;;;1.47;80.15;98780.19;4996294;28;20030;-84
2022/12/20 00:03:25;;;;;;;30.00;15.18;;;;;;;1.51;80.34;98778.19;4998257;28;20109;-84
2022/12/20 00:05:50;;;;;;;27.67;15.13;;;;;;;1.51;80.27;98784.19;4999190;28;20034;-84
2022/12/20 00:08:16;;;;;;;29.65;14.40;;;;;;;1.59;80.45;98780.94;4995980;28;20108;-84
2022/12/20 00:10:44;;;;;;;30.60;14.82;;;;;;;1.73;80.51;98795.31;5000364;28;20035;-84
2022/12/20 00:13:11;;;;;;;27.23;14.05;;;;;;;1.65;80.23;98800.31;4994461;28;20034;-84
2022/12/20 00:15:36;;;;;;;33.65;15.20;;;;;;;1.60;80.54;98772.25;4998756;28;20042;-84
2022/12/20 00:18:03;;;;;;;28.80;14.38;;;;;;;1.74;79.96;98795.22;5000374;28;20038;-84
2022/12/20 00:20:29;;;;;;;27.98;14.48;;;;;;;1.79;80.57;98792.22;4978792;28;20064;-84
2022/12/20 00:22:55;;;;;;;32.20;16.08;;;;;;;1.82;80.04;98785.06;4997319;28;20039;-84
2022/12/20 00:25:21;;;;;;;28.20;14.50;;;;;;;1.74;80.09;98774.53;4998344;28;20036;-83
2022/12/20 00:27:48;;;;;;;28.85;14.85;;;;;;;1.89;79.80;98793.13;4979244;28;20033;-83
2022/12/20 00:30:14;;;;;;;26.95;13.77;;;;;;;1.83;79.70;98789.28;4972883;28;20042;-84
2022/12/20 00:32:40;;;;;;;29.08;15.52;;;;;;;1.79;79.97;98793.06;4995808;28;20093;-84
2022/12/20 00:35:06;;;;;;;30.73;15.65;;;;;;;1.96;79.65;98816.72;4971664;28;20486;-84
2022/12/20 00:37:32;;;;;;;27.95;15.05;;;;;;;2.04;79.41;98804.78;4982737;28;20058;-84
2022/12/20 00:39:58;;;;;;;33.22;16.02;;;;;;;1.91;79.03;98780.88;4992116;28;20121;-84
2022/12/20 00:42:24;;;;;;;27.85;14.60;;;;;;;2.01;79.15;98791.28;4993158;28;20121;-84
2022/12/20 00:44:49;;;;;;;27.42;14.38;;;;;;;2.05;78.98;98798.66;4997830;28;20068;-84
2022/12/20 00:47:15;;;;;;;28.95;15.07;;;;;;;2.19;79.17;98805.25;4978882;28;20045;-84
2022/12/20 00:49:40;;;;;;;28.77;15.02;;;;;;;2.04;78.90;98771.16;4992103;28;20034;-84
2022/12/20 00:52:06;;;;;;;26.52;14.63;;;;;;;2.21;79.08;98798.19;4991477;28;20117;-84
2022/12/20 00:54:32;;;;;;;29.67;14.23;;;;;;;2.26;79.14;98784.84;4995052;28;20040;-84
2022/12/20 00:56:57;;;;;;;26.85;14.38;;;;;;;2.16;78.47;98784.84;4994046;28;20105;-83
2022/12/20 00:59:23;;;;;;;29.45;14.88;;;;;;;2.14;78.52;98768.59;4991691;28;20042;-84
2022/12/20 01:01:49;;;;;;;27.90;14.35;;;;;;;2.24;78.79;98781.59;4995003;28;20036;-83
2022/12/20 01:04:14;;;;;;;27.88;14.60;;;;;;;2.21;78.51;98767.13;4995065;28;20070;-84
2022/12/20 01:06:40;;;;;;;30.05;14.45;;;;;;;2.19;78.64;98758.69;4978688;28;20030;-84
2022/12/20 01:09:06;;;;;;;30.23;14.68;;;;;;;2.14;78.69;98766.00;4994082;28;20598;-84
2022/12/20 01:11:36;;;;;;;28.83;14.43;;;;;;;2.18;79.00;98776.94;5001858;28;20049;-84
2022/12/20 01:14:07;;;;;;;32.75;15.63;;;;;;;2.13;79.15;98774.72;5000329;28;20030;-85
2022/12/20 01:16:41;;;;;;;;;;;;;;;2.07;79.22;98781.22;4974913;28;20125;-84
2022/12/20 01:19:09;;;;;;;30.88;14.40;;;;;;;1.94;79.72;98749.59;4995831;28;19925;-87
2022/12/20 01:21:35;;;;;;;25.70;14.13;;;;;;;1.91;79.76;98755.00;5004306;28;20060;-86
2022/12/20 01:24:01;;;;;;;29.23;14.70;;;;;;;1.84;80.06;98739.16;4997390;28;20052;-85
2022/12/20 01:26:29;;;;;;;28.63;15.05;;;;;;;2.01;80.12;98757.63;5001602;28;20030;-86
2022/12/20 01:28:58;;;;;;;31.55;15.30;;;;;;;1.97;79.85;98754.47;4993129;28;20552;-86
2022/12/20 01:31:26;;;;;;;29.05;15.15;;;;;;;1.94;80.05;98744.41;5000944;28;20061;-86
2022/12/20 01:33:51;;;;;;;25.80;14.90;;;;;;;2.01;79.90;98755.06;4994850;28;20101;-86
2022/12/20 01:36:24;;;;;;;28.00;15.60;;;;;;;1.82;79.75;98745.44;4995796;28;20039;-86
2022/12/20 01:38:50;;;;;;;28.08;14.10;;;;;;;1.82;80.05;98768.72;4998667;28;20137;-87
2022/12/20 01:41:19;;;;;;;28.55;14.45;;;;;;;1.91;80.24;98777.47;4964315;28;20092;-86
2022/12/20 01:43:46;;;;;;;29.45;15.02;;;;;;;1.96;79.92;98768.38;4993067;28;20037;-87
2022/12/20 01:46:12;;;;;;;29.33;16.17;;;;;;;1.99;79.95;98770.72;5000733;28;20042;-86
2022/12/20 01:48:41;;;;;;;27.45;14.40;;;;;;;1.94;79.89;98785.78;5002731;28;20492;-87
2022/12/20 01:51:08;;;;;;;27.92;15.45;;;;;;;1.97;79.78;98784.72;4991025;28;20390;-84
2022/12/20 01:53:33;;;;;;;31.27;15.40;;;;;;;1.98;79.90;98776.84;4998514;28;20116;-84
2022/12/20 01:56:05;;;;;;;28.55;15.75;;;;;;;1.96;79.62;98773.53;4992275;28;20066;-83
2022/12/20 01:58:33;;;;;;;29.25;15.15;;;;;;;1.93;79.43;98778.19;4995991;28;20034;-83
2022/12/20 02:00:59;;;;;;;30.60;15.75;;;;;;;1.93;79.78;98788.53;4995135;28;20413;-84
2022/12/20 02:03:24;;;;;;;30.65;15.60;;;;;;;1.93;79.53;98784.16;4992857;28;20026;-84
2022/12/20 02:05:50;;;;;;;28.83;15.02;;;;;;;1.91;79.82;98780.88;4998188;28;20039;-84
2022/12/20 02:08:19;;;;;;;29.35;15.05;;;;;;;1.91;79.84;98764.53;4996862;28;20512;-84
2022/12/20 02:11:12;;;;;;;25.48;13.93;;;;;;;1.97;79.53;98753.66;4976512;28;20085;-84
2022/12/20 02:14:11;;;;;;;33.05;15.57;;;;;;;1.90;79.78;98768.88;4988443;28;20042;-83
2022/12/20 02:16:58;;;;;;;26.85;13.60;;;;;;;1.85;80.18;98745.16;4970124;28;20050;-84
2022/12/20 02:19:49;;;;;;;26.67;15.07;;;;;;;1.72;80.40;98735.03;4998910;28;20104;-83
2022/12/20 02:22:47;;;;;;;26.05;13.35;;;;;;;1.79;80.63;98736.16;4994060;28;20125;-83
2022/12/20 02:26:19;;;;;;;29.15;16.02;;;;;;;1.77;80.90;98704.44;4983974;28;20034;-83
2022/12/20 02:29:21;;;;;;;;;;;;;;;1.90;80.54;98701.63;4919297;29;20051;-83
2022/12/20 02:32:07;;;;;;;;;;;;;;;1.81;80.85;98718.75;4991310;28;20566;-86
2022/12/20 02:34:36;;;;;;;24.42;11.88;;;;;;;1.88;80.93;98682.84;4991637;28;19921;-85
2022/12/20 02:37:02;;;;;;;26.60;13.88;;;;;;;1.87;80.54;98660.50;4992691;28;20046;-86
2022/12/20 02:39:32;;;;;;;27.35;15.07;;;;;;;1.91;80.67;98651.53;4995950;28;20061;-86
2022/12/20 02:42:08;;;;;;;29.42;14.63;;;;;;;1.83;80.62;98677.22;4998799;28;20036;-86
2022/12/20 02:47:37;;;;;;;28.85;15.68;;;;;;;1.78;80.55;98682.78;4998840;28;20537;-87
2022/12/20 02:50:05;;;;;;;28.75;14.27;;;;;;;1.72;80.61;98670.38;5001637;28;20033;-86
2022/12/20 02:52:32;;;;;;;27.90;15.52;;;;;;;1.77;80.28;98664.81;4999148;28;20054;-86
2022/12/20 02:55:00;;;;;;;30.65;15.30;;;;;;;1.82;80.54;98680.78;4997323;28;20038;-86
2022/12/20 02:57:44;;;;;;;27.98;14.38;;;;;;;1.87;80.32;98663.09;4995401;28;20113;-86
2022/12/20 03:00:14;;;;;;;27.90;14.77;;;;;;;1.93;80.18;98667.75;4964971;28;20092;-86
2022/12/20 03:05:31;;;;;;;28.63;15.60;;;;;;;2.11;79.76;98707.56;5004970;28;20040;-86
2022/12/20 03:07:57;;;;;;;28.38;14.75;;;;;;;2.06;79.65;98711.50;4998301;28;20517;-86
2022/12/20 03:10:23;;;;;;;26.40;14.60;;;;;;;2.11;79.70;98714.53;5001167;28;20034;-86
2022/12/20 03:12:48;;;;;;;26.95;15.63;;;;;;;2.24;79.84;98709.13;5010790;28;20554;-87
2022/12/20 03:15:15;;;;;;;29.00;13.80;;;;;;;2.17;79.05;98702.84;5004067;28;20089;-86
2022/12/20 03:17:40;;;;;;;28.02;13.90;;;;;;;2.10;79.11;98689.59;5008583;28;20030;-87
2022/12/20 03:20:09;;;;;;;28.50;14.60;;;;;;;2.09;79.15;98696.53;5003723;28;20144;-87
2022/12/20 03:22:35;;;;;;;27.00;14.25;;;;;;;2.08;79.04;98713.00;4987461;28;20044;-86
2022/12/20 03:25:01;;;;;;;25.98;14.05;;;;;;;2.14;79.07;98724.59;5000264;28;20109;-87
2022/12/20 03:27:27;;;;;;;27.48;14.55;;;;;;;2.27;78.71;98735.53;4981200;28;20068;-86
2022/12/20 03:29:54;;;;;;;26.33;14.30;;;;;;;2.26;78.69;98731.31;4980495;28;20631;-87
2022/12/20 03:32:20;;;;;;;29.13;14.35;;;;;;;2.29;78.61;98717.31;5000821;28;20041;-87
2022/12/20 03:34:46;;;;;;;31.95;16.63;;;;;;;2.37;78.89;98715.69;4995593;28;20035;-87
2022/12/20 03:37:11;;;;;;;28.35;14.75;;;;;;;2.53;78.62;98709.19;4997287;28;20058;-87
2022/12/20 03:39:37;;;;;;;28.92;15.43;;;;;;;2.54;78.18;98716.00;5007429;28;20049;-87
2022/12/20 03:42:02;;;;;;;28.13;15.07;;;;;;;2.38;77.73;98709.56;5002735;28;20065;-86
2022/12/20 03:44:28;;;;;;;26.05;14.20;;;;;;;2.52;77.92;98707.53;4985290;28;20041;-86
2022/12/20 03:46:53;;;;;;;31.20;14.68;;;;;;;2.53;77.72;98701.41;5000151;28;20040;-87
2022/12/20 03:49:19;;;;;;;28.52;14.73;;;;;;;2.53;77.32;98704.81;4999410;28;20110;-87
2022/12/20 03:51:44;;;;;;;27.75;14.77;;;;;;;2.38;77.21;98688.84;4986558;28;20594;-86
2022/12/20 03:54:10;;;;;;;24.65;14.07;;;;;;;2.40;77.53;98699.09;4989847;28;20033;-87
2022/12/20 03:56:36;;;;;;;27.67;14.75;;;;;;;2.40;78.12;98675.78;5005388;28;20045;-86
2022/12/20 03:59:02;;;;;;;30.38;15.50;;;;;;;2.33;78.60;98682.41;4988941;28;20026;-86
2022/12/20 04:01:28;;;;;;;29.08;15.70;;;;;;;2.19;79.20;98688.78;5004346;28;20056;-86
2022/12/20 04:03:55;;;;;;;26.67;14.48;;;;;;;2.14;79.06;98665.06;4994748;28;20039;-86
2022/12/20 04:06:22;;;;;;;30.30;14.95;;;;;;;1.90;79.52;98685.28;4995557;28;20497;-87
2022/12/20 04:08:48;;;;;;;29.42;15.18;;;;;;;1.83;79.89;98667.69;4979568;28;20120;-87
2022/12/20 04:11:16;;;;;;;28.77;15.00;;;;;;;1.94;79.57;98665.97;5007064;28;20045;-87
2022/12/20 04:13:48;;;;;;;29.02;15.30;;;;;;;2.00;79.62;98662.88;5002184;28;20029;-87
2022/12/20 04:16:17;;;;;;;30.48;15.82;;;;;;;1.95;80.21;98662.44;4993481;28;20053;-86
2022/12/20 04:18:43;;;;;;;31.80;15.03;;;;;;;1.97;79.86;98655.34;4992738;28;20037;-86
2022/12/20 04:21:10;;;;;;;31.00;15.00;;;;;;;1.86;80.52;98631.25;5003801;28;20026;-87
2022/12/20 04:23:38;;;;;;;30.00;15.40;;;;;;;1.95;80.15;98642.56;5004948;28;20049;-86
2022/12/20 04:26:06;;;;;;;28.90;15.02;;;;;;;1.84;80.77;98630.53;5002335;28;20401;-86
2022/12/20 04:28:33;;;;;;;28.42;15.15;;;;;;;1.80;80.82;98629.19;4979476;28;20038;-86
2022/12/20 04:30:58;;;;;;;28.73;15.25;;;;;;;1.89;80.92;98637.91;4995041;28;20034;-87
2022/12/20 04:33:26;;;;;;;30.48;15.13;;;;;;;1.93;80.89;98634.13;4998602;28;20533;-86
2022/12/20 04:35:53;;;;;;;28.45;14.27;;;;;;;1.78;80.60;98625.06;4999365;28;20038;-86
2022/12/20 04:38:21;;;;;;;28.55;15.07;;;;;;;1.83;80.77;98638.44;4997431;28;20061;-86
2022/12/20 04:40:52;;;;;;;25.65;14.10;;;;;;;1.83;80.93;98647.00;5000455;28;20030;-87
2022/12/20 04:43:19;;;;;;;26.70;15.38;;;;;;;1.80;81.31;98634.34;4997503;28;20042;-87
2022/12/20 04:45:48;;;;;;;28.00;14.73;;;;;;;1.95;81.03;98645.16;4959668;28;20035;-87
2022/12/20 04:48:15;;;;;;;23.42;13.00;;;;;;;1.96;80.96;98645.97;5008706;28;20042;-87
2022/12/20 04:50:41;;;;;;;32.80;15.43;;;;;;;1.88;81.06;98628.53;4993769;28;20034;-87
2022/12/20 04:55:54;;;;;;;25.55;14.73;;;;;;;1.98;80.36;98641.47;4993086;28;20038;-86
2022/12/20 04:58:19;;;;;;;27.40;14.98;;;;;;;2.02;80.62;98637.69;5005321;28;20040;-87
2022/12/20 05:00:45;;;;;;;31.95;15.30;;;;;;;1.83;80.38;98603.03;5007899;28;20038;-87
2022/12/20 05:03:10;;;;;;;27.55;14.77;;;;;;;1.95;80.27;98626.22;4991993;28;20069;-86
2022/12/20 05:05:36;;;;;;;28.92;14.95;;;;;;;1.90;80.58;98618.84;4991058;28;20064;-86
2022/12/20 05:08:01;;;;;;;28.85;14.82;;;;;;;1.95;80.68;98633.97;4995125;28;20038;-87
2022/12/20 05:10:27;;;;;;;30.48;15.57;;;;;;;1.89;80.70;98622.38;5004084;28;20418;-87
2022/12/20 05:12:52;;;;;;;26.60;15.60;;;;;;;2.00;80.65;98642.16;5000444;28;20064;-87
2022/12/20 05:15:18;;;;;;;29.20;15.50;;;;;;;1.92;80.17;98616.13;4990379;28;20053;-86
2022/12/20 05:17:44;;;;;;;30.77;15.00;;;;;;;1.97;80.13;98601.03;4996205;28;20046;-86
2022/12/20 05:20:10;;;;;;;28.67;14.63;;;;;;;1.93;80.07;98591.91;4993683;28;20053;-87
2022/12/20 05:28:05;;;;;;;28.13;14.38;;;;;;;2.14;79.78;98610.72;4987852;28;20086;-87
2022/12/20 05:30:31;;;;;;;25.98;15.13;;;;;;;2.18;79.81;98617.28;4985625;28;20042;-87
2022/12/20 05:32:56;;;;;;;27.52;15.10;;;;;;;2.22;79.62;98631.59;4993693;28;20108;-86
2022/12/20 05:35:22;;;;;;;26.55;14.50;;;;;;;2.31;79.26;98646.31;5005679;28;20072;-87
2022/12/20 05:37:48;;;;;;;27.17;14.77;;;;;;;2.31;79.43;98641.16;4997934;28;20490;-87
2022/12/20 05:40:15;;;;;;;29.35;15.55;;;;;;;2.30;79.14;98616.22;4998225;28;20062;-87
2022/12/20 05:42:40;;;;;;;28.30;15.13;;;;;;;2.45;78.71;98618.41;5002182;28;20129;-87
2022/12/20 05:45:06;;;;;;;28.27;15.05;;;;;;;2.41;78.67;98602.34;5000464;28;20181;-87
2022/12/20 05:47:32;;;;;;;26.08;15.02;;;;;;;2.35;78.75;98608.88;4996056;28;20486;-86
2022/12/20 05:50:03;;;;;;;28.60;15.00;;;;;;;2.36;78.58;98615.69;5004005;28;20085;-87
2022/12/20 05:52:30;;;;;;;30.90;15.95;;;;;;;2.26;78.86;98603.66;4993145;28;20091;-87
2022/12/20 05:54:56;;;;;;;28.50;15.55;;;;;;;2.26;78.79;98614.84;4992207;28;20683;-87
2022/12/20 05:57:23;;;;;;;28.25;15.52;;;;;;;2.36;78.95;98631.22;4999664;28;20151;-87
2022/12/20 05:59:48;;;;;;;28.95;15.68;;;;;;;2.39;78.96;98619.75;4972763;28;20061;-86
2022/12/20 06:02:13;;;;;;;31.65;15.75;;;;;;;2.35;78.83;98603.69;4991581;28;20030;-87
2022/12/20 06:04:39;;;;;;;30.35;16.02;;;;;;;2.37;78.65;98604.38;4987252;28;20038;-87
2022/12/20 06:07:05;;;;;;;26.02;14.20;;;;;;;2.31;78.63;98602.31;5005632;28;20034;-87
2022/12/20 06:09:31;;;;;;;28.40;14.88;;;;;;;2.25;78.59;98597.69;4987421;28;20038;-87
2022/12/20 06:11:58;;;;;;;31.42;15.45;;;;;;;2.33;79.14;98592.63;5008045;28;20072;-86
2022/12/20 06:14:23;;;;;;;28.75;15.02;;;;;;;2.40;79.14;98611.06;4988908;28;20718;-87
2022/12/20 06:16:49;;;;;;;26.35;15.30;;;;;;;2.38;78.89;98623.31;5004317;28;20164;-87
2022/12/20 06:19:15;;;;;;;26.77;14.98;;;;;;;2.39;79.33;98612.81;5001411;28;20027;-87
2022/12/20 06:21:41;;;;;;;25.98;14.30;;;;;;;2.52;79.13;98614.31;5001534;28;20038;-87
2022/12/20 06:24:07;;;;;;;27.33;14.63;;;;;;;2.37;79.18;98599.19;4984974;28;20034;-87
2022/12/20 06:26:36;;;;;;;35.03;15.82;;;;;;;2.50;79.28;98617.03;5004809;28;20363;-87
2022/12/20 06:29:06;;;;;;;30.48;16.30;;;;;;;2.44;79.46;98619.34;5000416;28;20487;-86
2022/12/20 06:31:34;;;;;;;29.40;15.07;;;;;;;2.33;79.25;98595.22;5001563;28;20557;-86
2022/12/20 06:33:59;;;;;;;26.58;14.75;;;;;;;2.18;79.40;98601.75;5008153;28;20045;-87
2022/12/20 06:36:25;;;;;;;29.70;15.13;;;;;;;2.20;79.52;98604.22;5003947;28;20038;-87
2022/12/20 06:38:50;;;;;;;33.05;15.52;;;;;;;2.19;79.75;98598.22;5002288;28;20057;-86
2022/12/20 06:41:18;;;;;;;30.55;16.58;;;;;;;2.23;79.79;98603.94;4998487;28;20050;-87
2022/12/20 06:43:43;;;;;;;32.38;16.23;;;;;;;2.12;80.23;98597.94;5003316;28;20602;-87
2022/12/20 06:46:09;;;;;;;31.73;16.30;;;;;;;2.22;80.52;98616.09;4981248;28;20030;-87
2022/12/20 06:48:34;;;;;;;31.38;15.98;;;;;;;2.12;80.00;98604.88;4993883;28;20038;-86
2022/12/20 06:51:00;;;;;;;32.55;16.48;;;;;;;2.23;80.12;98617.72;4977730;28;20049;-87
2022/12/20 06:53:26;;;;;;;28.02;15.13;;;;;;;2.24;79.84;98610.75;5005252;28;20034;-87
2022/12/20 06:55:52;;;;;;;27.80;15.77;;;;;;;2.12;80.13;98605.69;5001768;28;20093;-87
2022/12/20 06:58:19;;;;;;;23.17;12.88;;;;;;;2.18;80.13;98626.81;4987290;28;20057;-86
2022/12/20 07:00:45;;;;;;;30.08;15.82;;;;;;;2.27;80.07;98637.19;4982328;28;20042;-87
2022/12/20 07:03:11;;;;;;;28.83;16.13;;;;;;;2.30;79.84;98630.94;4992903;28;20046;-87
2022/12/20 07:05:37;;;;;;;25.83;14.60;;;;;;;2.31;79.94;98651.50;5000706;28;20133;-87
2022/12/20 07:08:04;;;;;;;30.25;16.10;;;;;;;2.33;79.68;98634.06;4998235;28;20501;-87
2022/12/20 07:10:33;;;;;;;25.42;13.85;;;;;;;2.37;79.96;98640.59;4995845;28;20030;-87
2022/12/20 07:12:58;;;;;;;28.02;15.35;;;;;;;2.32;79.91;98613.47;4998935;28;20041;-87
2022/12/20 07:15:24;;;;;;;29.27;15.95;;;;;;;2.38;79.70;98608.59;4984497;28;20110;-88
2022/12/20 07:17:50;;;;;;;36.70;18.92;;;;;;;2.35;79.78;98636.53;4993431;28;20045;-88
2022/12/20 07:20:16;;;;;;;31.63;18.25;;;;;;;2.36;80.03;98615.69;4992721;28;20022;-88
2022/12/20 07:22:42;;;;;;;31.38;18.15;;;;;;;2.27;79.88;98590.59;4993811;28;20043;-88
2022/12/20 07:25:09;;;;;;;27.75;14.65;;;;;;;2.27;80.10;98600.94;4992398;28;20034;-88
2022/12/20 07:27:35;;;;;;;30.73;16.17;;;;;;;2.31;79.87;98607.50;4998942;28;20044;-87
2022/12/20 07:30:01;;;;;;;31.35;16.23;;;;;;;2.17;80.41;98589.78;5003131;28;20034;-88
2022/12/20 07:32:26;;;;;;;29.17;14.82;;;;;;;2.29;80.61;98600.81;4999655;28;20041;-87
2022/12/20 07:34:52;;;;;;;27.80;15.43;;;;;;;2.31;80.39;98597.13;4983470;28;20026;-87
2022/12/20 07:37:18;;;;;;;30.98;16.40;;;;;;;2.28;80.40;98602.59;4996536;28;20558;-88
2022/12/20 07:39:43;;;;;;;19.63;12.60;;;;;;;2.20;80.41;98581.72;5002423;28;20183;-87
2022/12/20 07:42:11;;;;;;;31.10;18.02;;;;;;;2.16;80.95;98585.56;5012174;28;20038;-87
2022/12/20 07:44:36;;;;;;;29.17;15.65;;;;;;;2.04;80.92;98563.31;4998170;28;20040;-87
2022/12/20 07:47:02;;;;;;;33.92;18.48;;;;;;;2.15;81.38;98570.97;5004360;28;20037;-87
2022/12/20 07:49:27;;;;;;;33.85;18.02;;;;;;;2.09;81.37;98571.50;4991826;28;20101;-87
2022/12/20 07:51:59;;;;;;;27.83;16.10;;;;;;;2.11;81.23;98575.59;4989571;28;20048;-87
2022/12/20 07:54:30;;;;;;;28.23;16.10;;;;;;;2.25;81.11;98597.69;5001727;28;20537;-87
2022/12/20 07:57:21;;;;;;;32.83;16.58;;;;;;;2.27;80.85;98593.16;5006732;28;20030;-87
2022/12/20 07:59:53;;;;;;;30.75;16.50;;;;;;;2.22;81.02;98581.59;4974873;28;20040;-87
2022/12/20 08:02:46;;;;;;;28.20;15.40;;;;;;;2.41;80.39;98587.63;4993272;28;20069;-87
2022/12/20 08:05:14;;;;;;;29.73;16.63;;;;;;;2.57;80.28;98588.81;4991039;28;20116;-87
2022/12/20 08:07:43;;;;;;;29.83;15.10;;;;;;;2.56;79.91;98563.88;4978153;28;20037;-87
2022/12/20 08:10:13;;;;;;;27.67;15.90;;;;;;;2.75;79.24;98558.69;4961455;28;20072;-87
2022/12/20 08:12:40;;;;;;;36.42;16.85;;;;;;;2.70;79.53;98566.09;4989295;28;20076;-87
2022/12/20 08:15:07;;;;;;;28.70;14.65;;;;;;;2.69;79.35;98575.59;4993376;28;20030;-87
2022/12/20 08:17:33;;;;;;;26.73;14.90;;;;;;;2.74;78.97;98572.59;4997252;28;20113;-88
2022/12/20 08:19:59;;;;;;;30.90;16.17;;;;;;;2.81;78.89;98573.69;4991999;28;20447;-87
2022/12/20 08:22:25;;;;;;;24.83;14.63;;;;;;;2.87;78.78;98570.53;4986305;28;20030;-87
2022/12/20 08:24:51;;;;;;;31.15;16.08;;;;;;;2.88;78.72;98556.66;4975782;28;20043;-87
2022/12/20 08:27:16;;;;;;;27.25;15.30;;;;;;;2.77;78.38;98540.44;4996628;28;20080;-87
2022/12/20 08:29:42;;;;;;;26.73;15.75;;;;;;;3.07;78.55;98547.19;5000692;28;20030;-87
2022/12/20 08:32:08;;;;;;;27.67;14.77;;;;;;;2.92;78.12;98523.47;4980416;28;20431;-87
2022/12/20 08:34:34;;;;;;;24.02;14.07;;;;;;;2.91;78.16;98535.63;4992498;28;20648;-88
2022/12/20 08:37:00;;;;;;;30.67;15.77;;;;;;;3.12;77.69;98557.91;4982558;28;20040;-87
2022/12/20 08:39:25;;;;;;;27.33;14.40;;;;;;;3.17;77.86;98542.78;4982948;28;20161;-88
2022/12/20 08:41:51;;;;;;;29.50;15.68;;;;;;;3.17;77.11;98540.19;5000642;28;20038;-87
2022/12/20 08:44:16;;;;;;;26.00;14.80;;;;;;;3.25;76.99;98545.50;5005151;28;20034;-87
2022/12/20 08:46:43;;;;;;;30.20;15.60;;;;;;;3.31;77.05;98573.44;4992454;28;20038;-88
2022/12/20 08:49:09;;;;;;;27.25;14.48;;;;;;;3.28;76.68;98545.19;4993030;28;20031;-88
2022/12/20 08:51:35;;;;;;;29.63;15.15;;;;;;;3.41;76.55;98550.88;4994874;28;20037;-87
2022/12/20 08:54:01;;;;;;;27.63;14.73;;;;;;;3.40;76.54;98538.88;4983659;28;20187;-88
2022/12/20 08:56:27;;;;;;;26.48;15.25;;;;;;;3.45;76.63;98547.03;4997938;28;20091;-88
2022/12/20 08:58:52;;;;;;;26.85;14.90;;;;;;;3.35;76.46;98525.50;4991042;28;20121;-87
2022/12/20 09:01:20;;;;;;;27.13;15.95;;;;;;;3.58;76.47;98540.69;4995476;28;20038;-87
2022/12/20 09:03:47;;;;;;;28.23;15.50;;;;;;;3.59;76.31;98539.72;4983889;28;20034;-87
2022/12/20 09:06:20;;;;;;;29.38;15.98;;;;;;;3.65;76.05;98545.16;4982959;28;20038;-87
2022/12/20 09:08:47;;;;;;;28.42;15.20;;;;;;;3.44;76.20;98527.25;4981599;28;20066;-88
2022/12/20 09:11:17;;;;;;;30.92;15.68;;;;;;;3.59;76.53;98531.94;5004999;28;20029;-87
2022/12/20 09:13:46;;;;;;;28.38;16.40;;;;;;;3.64;76.54;98540.13;4993761;28;20034;-87
2022/12/20 09:16:15;;;;;;;33.85;17.17;;;;;;;3.58;76.31;98549.28;5002387;28;20052;-87
2022/12/20 09:18:41;;;;;;;29.55;16.70;;;;;;;3.76;76.09;98559.72;4999523;28;20040;-88
2022/12/20 09:21:09;;;;;;;30.00;16.75;;;;;;;3.86;75.99;98554.47;5004803;28;20107;-87
2022/12/20 09:23:36;;;;;;;32.55;16.30;;;;;;;3.91;75.39;98568.66;4980010;28;20386;-87
2022/12/20 09:26:12;;;;;;;31.85;17.00;;;;;;;3.91;75.71;98547.91;4996948;28;20037;-87
2022/12/20 09:28:44;;;;;;;35.53;18.02;;;;;;;3.97;75.27;98556.88;4991802;28;20069;-90
2022/12/20 09:31:14;;;;;;;47.42;24.50;;;;;;;3.90;75.13;98548.88;4997023;28;20049;-88
2022/12/20 09:33:41;;;;;;;37.95;19.83;;;;;;;3.92;75.03;98554.72;5001630;28;20034;-87
2022/12/20 09:36:16;;;;;;;30.00;16.50;;;;;;;4.01;75.17;98551.22;5001878;28;20045;-87
2022/12/20 09:38:42;;;;;;;28.83;15.23;;;;;;;4.10;75.05;98548.72;5003839;28;20065;-87
2022/12/20 09:41:39;;;;;;;26.80;14.00;;;;;;;4.06;74.94;98542.19;4996659;28;20477;-87
2022/12/20 09:44:22;;;;;;;27.15;17.98;;;;;;;4.27;74.15;98553.94;5000920;28;20026;-87
2022/12/20 09:47:21;;;;;;;24.35;14.88;;;;;;;4.26;74.50;98546.28;5000477;28;20042;-88
2022/12/20 09:49:52;;;;;;;26.33;15.38;;;;;;;4.34;74.43;98535.97;4988897;28;20026;-87
2022/12/20 09:53:04;;;;;;;25.27;15.02;;;;;;;4.34;74.32;98520.38;5004218;28;20058;-86
2022/12/20 09:55:35;;;;;;;26.58;15.07;;;;;;;4.35;74.16;98518.59;5005281;28;20027;-87
2022/12/20 09:58:25;;;;;;;27.15;14.02;;;;;;;4.17;74.47;98510.81;4999214;28;20521;-87
2022/12/20 10:00:51;;;;;;;23.48;13.70;;;;;;;4.12;74.62;98485.31;5007496;28;20109;-87
2022/12/20 10:03:34;;;;;;;24.88;14.43;;;;;;;4.11;75.07;98483.69;5004744;28;20088;-87
2022/12/20 10:06:15;;;;;;;26.83;14.77;;;;;;;4.03;75.16;98474.03;4976408;28;20085;-87
2022/12/20 10:08:58;;;;;;;25.85;13.88;;;;;;;4.05;75.06;98466.09;4970178;28;20046;-87
2022/12/20 10:12:00;;;;;;;22.42;14.60;;;;;;;4.15;75.09;98474.63;4992737;28;20042;-87
2022/12/20 10:14:47;;;;;;;27.05;14.73;;;;;;;4.14;75.13;98487.75;5007111;28;20041;-87
2022/12/20 10:17:38;;;;;;;36.95;17.52;;;;;;;4.17;75.32;98490.06;4973740;28;20078;-87
2022/12/20 10:20:19;;;;;;;26.48;15.27;;;;;;;4.38;74.77;98503.56;4990944;28;20030;-87
2022/12/20 10:23:22;;;;;;;23.05;14.20;;;;;;;4.54;74.14;98502.84;4994228;28;20136;-87
2022/12/20 10:25:51;;;;;;;30.13;16.50;;;;;;;4.60;74.16;98481.44;4960313;28;20117;-87
2022/12/20 10:28:26;;;;;;;28.00;15.98;;;;;;;4.71;73.50;98462.22;5009647;28;20117;-87
2022/12/20 10:30:52;;;;;;;27.85;15.35;;;;;;;4.80;73.21;98467.31;4993922;28;20037;-87
2022/12/20 10:33:23;;;;;;;29.65;16.17;;;;;;;4.71;73.32;98441.41;4997117;28;20038;-86
2022/12/20 10:35:49;;;;;;;25.83;14.15;;;;;;;4.90;73.09;98453.38;4993955;28;20115;-87
2022/12/20 10:38:17;;;;;;;28.55;15.32;;;;;;;4.81;73.15;98462.94;4994518;28;20069;-87
2022/12/20 10:41:13;;;;;;;26.45;14.55;;;;;;;4.98;73.37;98469.84;4992891;28;20030;-87
2022/12/20 10:43:44;;;;;;;24.65;15.32;;;;;;;5.03;72.99;98444.16;5001828;28;20053;-87
2022/12/20 10:46:15;;;;;;;25.25;14.30;;;;;;;5.09;72.50;98446.16;5003869;28;20038;-88
2022/12/20 10:48:44;;;;;;;23.65;13.45;;;;;;;5.06;72.48;98450.88;5005752;28;20095;-87
2022/12/20 10:51:09;;;;;;;22.00;13.25;;;;;;;5.13;72.85;98458.84;5001825;28;20071;-87
2022/12/20 10:53:57;;;;;;;27.02;14.20;;;;;;;5.03;72.79;98449.38;5006559;28;20064;-87
2022/12/20 10:56:29;;;;;;;24.58;13.27;;;;;;;5.10;72.38;98447.00;4954293;28;20038;-86
2022/12/20 10:59:14;;;;;;;25.90;13.32;;;;;;;5.22;72.28;98476.13;4989734;28;20541;-87
2022/12/20 11:01:45;;;;;;;24.23;13.80;;;;;;;5.27;72.37;98443.47;5008783;28;20049;-87
2022/12/20 11:04:31;;;;;;;23.58;13.55;;;;;;;5.43;72.32;98434.91;5008293;28;20402;-87
2022/12/20 11:07:00;;;;;;;24.45;14.90;;;;;;;5.41;72.02;98457.66;4997928;28;20888;-86
2022/12/20 11:09:37;;;;;;;28.73;14.63;;;;;;;5.37;72.13;98448.53;5004875;28;20037;-86
2022/12/20 11:12:15;;;;;;;24.42;13.95;;;;;;;5.46;71.95;98426.78;5005335;28;20057;-86
2022/12/20 11:14:44;;;;;;;22.13;13.32;;;;;;;5.29;71.67;98423.31;4999031;28;20032;-86
2022/12/20 11:17:13;;;;;;;22.48;12.98;;;;;;;5.40;71.67;98437.84;4992913;28;20089;-87
2022/12/20 11:20:29;;;;;;;19.25;13.07;;;;;;;5.37;72.02;98425.94;4982431;28;20050;-86
2022/12/20 11:23:25;;;;;;;19.95;11.70;;;;;;;5.29;72.30;98412.13;4968998;28;20073;-86
2022/12/20 11:26:00;;;;;;;21.25;12.07;;;;;;;5.21;72.56;98406.88;4975695;28;20070;-86
2022/12/20 11:28:43;;;;;;;21.65;12.70;;;;;;;5.25;72.75;98413.38;4994850;28;20415;-86
2022/12/20 11:31:15;;;;;;;21.17;12.13;;;;;;;5.15;72.49;98413.50;4998661;28;20108;-86
2022/12/20 11:34:03;;;;;;;19.95;12.18;;;;;;;5.32;72.35;98411.78;4965109;28;20038;-87
2022/12/20 11:37:18;;;;;;;20.13;12.32;;;;;;;5.49;72.61;98410.03;5000741;28;20054;-86
2022/12/20 11:40:05;;;;;;;24.00;12.40;;;;;;;5.36;72.46;98394.91;4995461;28;20081;-86
2022/12/20 11:42:58;;;;;;;18.95;10.88;;;;;;;5.33;72.50;98395.19;4975601;28;20371;-87
2022/12/20 11:45:58;;;;;;;22.25;12.02;;;;;;;5.49;73.01;98405.66;4997609;28;20030;-86
2022/12/20 11:48:48;;;;;;;20.25;12.18;;;;;;;5.36;72.66;98385.31;4990015;28;20037;-86
2022/12/20 11:51:34;;;;;;;20.42;12.88;;;;;;;5.47;72.92;98376.38;4979438;28;20031;-86
2022/12/20 11:54:33;;;;;;;21.73;12.82;;;;;;;5.51;71.81;98371.66;4988951;28;20029;-87
2022/12/20 11:57:34;;;;;;;19.83;11.90;;;;;;;5.39;71.95;98352.94;4964383;28;20065;-87